sensor_id;sensor_type;location;lat;lon;timestamp;P1;durP1;ratioP1;P2;durP2;ratioP2
13753;SDS011;6948;51.216;6.778;2023-04-12T00:01:05;4.53;;;2.37;;
13753;SDS011;6948;51.216;6.778;2023-04-12T00:03:31;7.27;;;2.87;;
13753;SDS011;6948;51.216;6.778;2023-04-12T00:05:58;9.10;;;2.90;;
13753;SDS011;6948;51.216;6.778;2023-04-12T00:08:27;6.73;;;2.80;;
13753;SDS011;6948;51.216;6.778;2023-04-12T00:10:58;9.47;;;2.83;;
13753;SDS011;6948;51.216;6.778;2023-04-12T00:13:25;7.20;;;2.70;;
13753;SDS011;6948;51.216;6.778;2023-04-12T00:15:50;6.43;;;2.43;;
13753;SDS011;6948;51.216;6.778;2023-04-12T00:18:16;8.10;;;2.37;;
13753;SDS011;6948;51.216;6.778;2023-04-12T00:20:42;6.83;;;2.70;;
13753;SDS011;6948;51.216;6.778;2023-04-12T00:23:08;7.40;;;2.27;;
13753;SDS011;6948;51.216;6.778;2023-04-12T00:25:34;8.73;;;2.77;;
13753;SDS011;6948;51.216;6.778;2023-04-12T00:28:02;9.23;;;2.40;;
13753;SDS011;6948;51.216;6.778;2023-04-12T00:30:28;10.63;;;2.60;;
13753;SDS011;6948;51.216;6.778;2023-04-12T00:32:53;8.43;;;2.80;;
13753;SDS011;6948;51.216;6.778;2023-04-12T00:35:19;7.50;;;2.33;;
13753;SDS011;6948;51.216;6.778;2023-04-12T00:37:45;5.97;;;2.47;;
13753;SDS011;6948;51.216;6.778;2023-04-12T00:40:10;6.90;;;2.50;;
13753;SDS011;6948;51.216;6.778;2023-04-12T00:42:36;9.87;;;2.87;;
13753;SDS011;6948;51.216;6.778;2023-04-12T00:45:03;8.67;;;2.30;;
13753;SDS011;6948;51.216;6.778;2023-04-12T00:47:30;13.60;;;2.73;;
13753;SDS011;6948;51.216;6.778;2023-04-12T00:49:59;8.93;;;2.53;;
13753;SDS011;6948;51.216;6.778;2023-04-12T00:52:26;7.93;;;2.50;;
13753;SDS011;6948;51.216;6.778;2023-04-12T00:54:53;7.50;;;2.57;;
13753;SDS011;6948;51.216;6.778;2023-04-12T00:57:18;9.63;;;2.50;;
13753;SDS011;6948;51.216;6.778;2023-04-12T00:59:45;5.77;;;2.20;;
13753;SDS011;6948;51.216;6.778;2023-04-12T01:02:11;9.60;;;2.97;;
13753;SDS011;6948;51.216;6.778;2023-04-12T01:04:36;9.80;;;2.73;;
13753;SDS011;6948;51.216;6.778;2023-04-12T01:10:06;8.13;;;2.30;;
13753;SDS011;6948;51.216;6.778;2023-04-12T01:12:52;7.50;;;2.20;;
13753;SDS011;6948;51.216;6.778;2023-04-12T01:15:29;6.17;;;2.27;;
13753;SDS011;6948;51.216;6.778;2023-04-12T01:18:03;7.23;;;2.53;;
13753;SDS011;6948;51.216;6.778;2023-04-12T01:20:37;6.67;;;2.40;;
13753;SDS011;6948;51.216;6.778;2023-04-12T01:28:44;6.47;;;2.73;;
13753;SDS011;6948;51.216;6.778;2023-04-12T01:31:14;8.53;;;2.93;;
13753;SDS011;6948;51.216;6.778;2023-04-12T01:33:40;8.13;;;2.90;;
13753;SDS011;6948;51.216;6.778;2023-04-12T01:36:10;8.80;;;2.70;;
13753;SDS011;6948;51.216;6.778;2023-04-12T01:38:39;7.63;;;2.50;;
13753;SDS011;6948;51.216;6.778;2023-04-12T01:41:06;6.47;;;2.60;;
13753;SDS011;6948;51.216;6.778;2023-04-12T01:43:32;6.50;;;2.60;;
13753;SDS011;6948;51.216;6.778;2023-04-12T01:45:58;8.53;;;2.80;;
13753;SDS011;6948;51.216;6.778;2023-04-12T01:48:24;7.37;;;2.63;;
13753;SDS011;6948;51.216;6.778;2023-04-12T01:50:56;5.73;;;2.50;;
13753;SDS011;6948;51.216;6.778;2023-04-12T01:53:42;7.43;;;2.43;;
13753;SDS011;6948;51.216;6.778;2023-04-12T01:56:14;6.30;;;2.77;;
13753;SDS011;6948;51.216;6.778;2023-04-12T01:58:41;4.03;;;2.30;;
13753;SDS011;6948;51.216;6.778;2023-04-12T02:01:08;7.47;;;2.30;;
13753;SDS011;6948;51.216;6.778;2023-04-12T02:03:38;6.37;;;2.37;;
13753;SDS011;6948;51.216;6.778;2023-04-12T02:06:07;7.47;;;2.20;;
13753;SDS011;6948;51.216;6.778;2023-04-12T02:08:33;8.63;;;2.30;;
13753;SDS011;6948;51.216;6.778;2023-04-12T02:11:00;5.97;;;2.67;;
13753;SDS011;6948;51.216;6.778;2023-04-12T02:13:31;4.07;;;2.03;;
13753;SDS011;6948;51.216;6.778;2023-04-12T02:15:57;5.30;;;2.00;;
13753;SDS011;6948;51.216;6.778;2023-04-12T02:18:23;5.23;;;2.30;;
13753;SDS011;6948;51.216;6.778;2023-04-12T02:20:48;3.90;;;1.90;;
13753;SDS011;6948;51.216;6.778;2023-04-12T02:23:14;3.73;;;1.83;;
13753;SDS011;6948;51.216;6.778;2023-04-12T02:25:40;6.70;;;2.17;;
13753;SDS011;6948;51.216;6.778;2023-04-12T02:28:06;6.07;;;2.00;;
13753;SDS011;6948;51.216;6.778;2023-04-12T02:30:32;5.20;;;2.10;;
13753;SDS011;6948;51.216;6.778;2023-04-12T02:32:57;3.60;;;1.73;;
13753;SDS011;6948;51.216;6.778;2023-04-12T02:35:23;5.30;;;2.20;;
13753;SDS011;6948;51.216;6.778;2023-04-12T02:37:49;4.77;;;2.00;;
13753;SDS011;6948;51.216;6.778;2023-04-12T02:40:15;5.87;;;1.80;;
13753;SDS011;6948;51.216;6.778;2023-04-12T02:42:41;5.27;;;2.03;;
13753;SDS011;6948;51.216;6.778;2023-04-12T02:45:08;4.60;;;1.77;;
13753;SDS011;6948;51.216;6.778;2023-04-12T02:47:35;3.17;;;1.83;;
13753;SDS011;6948;51.216;6.778;2023-04-12T02:50:02;7.57;;;2.03;;
13753;SDS011;6948;51.216;6.778;2023-04-12T02:52:28;4.50;;;1.80;;
13753;SDS011;6948;51.216;6.778;2023-04-12T02:54:54;5.80;;;2.10;;
13753;SDS011;6948;51.216;6.778;2023-04-12T02:57:21;5.53;;;2.00;;
13753;SDS011;6948;51.216;6.778;2023-04-12T02:59:47;6.83;;;2.10;;
13753;SDS011;6948;51.216;6.778;2023-04-12T03:02:17;3.93;;;2.03;;
13753;SDS011;6948;51.216;6.778;2023-04-12T03:04:43;5.40;;;2.33;;
13753;SDS011;6948;51.216;6.778;2023-04-12T03:07:10;7.47;;;2.33;;
13753;SDS011;6948;51.216;6.778;2023-04-12T03:09:37;6.00;;;2.67;;
13753;SDS011;6948;51.216;6.778;2023-04-12T03:12:02;6.53;;;2.87;;
13753;SDS011;6948;51.216;6.778;2023-04-12T03:14:29;5.50;;;2.60;;
13753;SDS011;6948;51.216;6.778;2023-04-12T03:16:55;6.03;;;2.67;;
13753;SDS011;6948;51.216;6.778;2023-04-12T03:19:20;7.13;;;2.87;;
13753;SDS011;6948;51.216;6.778;2023-04-12T03:21:46;7.07;;;3.07;;
13753;SDS011;6948;51.216;6.778;2023-04-12T03:24:12;4.57;;;2.40;;
13753;SDS011;6948;51.216;6.778;2023-04-12T03:26:38;6.17;;;2.70;;
13753;SDS011;6948;51.216;6.778;2023-04-12T03:29:05;7.47;;;2.67;;
13753;SDS011;6948;51.216;6.778;2023-04-12T03:31:32;7.97;;;3.07;;
13753;SDS011;6948;51.216;6.778;2023-04-12T03:33:59;6.37;;;2.80;;
13753;SDS011;6948;51.216;6.778;2023-04-12T03:36:25;6.90;;;2.80;;
13753;SDS011;6948;51.216;6.778;2023-04-12T03:38:51;9.60;;;3.10;;
13753;SDS011;6948;51.216;6.778;2023-04-12T03:41:17;8.33;;;3.10;;
13753;SDS011;6948;51.216;6.778;2023-04-12T03:43:45;7.13;;;3.00;;
13753;SDS011;6948;51.216;6.778;2023-04-12T03:46:11;4.90;;;2.60;;
13753;SDS011;6948;51.216;6.778;2023-04-12T03:48:39;5.93;;;2.53;;
13753;SDS011;6948;51.216;6.778;2023-04-12T03:51:05;6.27;;;2.80;;
13753;SDS011;6948;51.216;6.778;2023-04-12T03:53:33;6.63;;;2.53;;
13753;SDS011;6948;51.216;6.778;2023-04-12T03:55:58;8.93;;;2.57;;
13753;SDS011;6948;51.216;6.778;2023-04-12T03:58:24;7.63;;;2.90;;
13753;SDS011;6948;51.216;6.778;2023-04-12T04:00:50;4.93;;;2.47;;
13753;SDS011;6948;51.216;6.778;2023-04-12T04:03:16;5.93;;;2.20;;
13753;SDS011;6948;51.216;6.778;2023-04-12T04:05:42;7.57;;;2.80;;
13753;SDS011;6948;51.216;6.778;2023-04-12T04:08:08;6.53;;;2.80;;
13753;SDS011;6948;51.216;6.778;2023-04-12T04:10:34;7.10;;;2.60;;
13753;SDS011;6948;51.216;6.778;2023-04-12T04:13:00;7.07;;;2.50;;
13753;SDS011;6948;51.216;6.778;2023-04-12T04:15:26;6.50;;;2.53;;
13753;SDS011;6948;51.216;6.778;2023-04-12T04:17:51;6.93;;;2.50;;
13753;SDS011;6948;51.216;6.778;2023-04-12T04:20:17;5.03;;;2.50;;
13753;SDS011;6948;51.216;6.778;2023-04-12T04:22:44;4.27;;;2.17;;
13753;SDS011;6948;51.216;6.778;2023-04-12T04:25:12;5.63;;;2.23;;
13753;SDS011;6948;51.216;6.778;2023-04-12T04:27:40;5.20;;;2.33;;
13753;SDS011;6948;51.216;6.778;2023-04-12T04:30:08;4.10;;;2.43;;
13753;SDS011;6948;51.216;6.778;2023-04-12T04:32:36;6.30;;;2.50;;
13753;SDS011;6948;51.216;6.778;2023-04-12T04:35:02;5.13;;;2.43;;
13753;SDS011;6948;51.216;6.778;2023-04-12T04:37:28;5.87;;;2.10;;
13753;SDS011;6948;51.216;6.778;2023-04-12T04:39:55;6.37;;;2.53;;
13753;SDS011;6948;51.216;6.778;2023-04-12T04:42:21;6.60;;;2.90;;
13753;SDS011;6948;51.216;6.778;2023-04-12T04:44:48;5.57;;;2.60;;
13753;SDS011;6948;51.216;6.778;2023-04-12T04:47:15;5.87;;;2.40;;
13753;SDS011;6948;51.216;6.778;2023-04-12T04:49:42;5.10;;;2.30;;
13753;SDS011;6948;51.216;6.778;2023-04-12T04:52:08;5.70;;;2.20;;
13753;SDS011;6948;51.216;6.778;2023-04-12T04:54:34;5.53;;;2.60;;
13753;SDS011;6948;51.216;6.778;2023-04-12T04:57:00;4.63;;;2.30;;
13753;SDS011;6948;51.216;6.778;2023-04-12T04:59:26;6.27;;;2.80;;
13753;SDS011;6948;51.216;6.778;2023-04-12T05:01:52;4.57;;;2.57;;
13753;SDS011;6948;51.216;6.778;2023-04-12T05:04:17;6.07;;;2.80;;
13753;SDS011;6948;51.216;6.778;2023-04-12T05:06:44;5.77;;;2.67;;
13753;SDS011;6948;51.216;6.778;2023-04-12T05:09:10;7.53;;;2.83;;
13753;SDS011;6948;51.216;6.778;2023-04-12T05:11:35;6.03;;;2.97;;
13753;SDS011;6948;51.216;6.778;2023-04-12T05:14:01;6.80;;;3.30;;
13753;SDS011;6948;51.216;6.778;2023-04-12T05:16:27;6.73;;;2.97;;
13753;SDS011;6948;51.216;6.778;2023-04-12T05:18:52;6.63;;;3.03;;
13753;SDS011;6948;51.216;6.778;2023-04-12T05:21:18;5.60;;;2.97;;
13753;SDS011;6948;51.216;6.778;2023-04-12T05:23:44;8.23;;;3.30;;
13753;SDS011;6948;51.216;6.778;2023-04-12T05:26:11;8.10;;;3.20;;
13753;SDS011;6948;51.216;6.778;2023-04-12T05:28:37;8.83;;;4.13;;
13753;SDS011;6948;51.216;6.778;2023-04-12T05:31:03;7.90;;;3.60;;
13753;SDS011;6948;51.216;6.778;2023-04-12T05:33:29;7.50;;;3.40;;
13753;SDS011;6948;51.216;6.778;2023-04-12T05:35:55;5.17;;;3.20;;
13753;SDS011;6948;51.216;6.778;2023-04-12T05:38:21;5.87;;;3.10;;
13753;SDS011;6948;51.216;6.778;2023-04-12T05:40:47;5.13;;;2.93;;
13753;SDS011;6948;51.216;6.778;2023-04-12T05:43:14;6.67;;;3.40;;
13753;SDS011;6948;51.216;6.778;2023-04-12T05:45:40;4.73;;;3.30;;
13753;SDS011;6948;51.216;6.778;2023-04-12T05:48:06;5.27;;;3.20;;
13753;SDS011;6948;51.216;6.778;2023-04-12T05:50:32;6.87;;;3.53;;
13753;SDS011;6948;51.216;6.778;2023-04-12T05:52:59;4.83;;;3.27;;
13753;SDS011;6948;51.216;6.778;2023-04-12T05:55:25;7.43;;;3.20;;
13753;SDS011;6948;51.216;6.778;2023-04-12T05:57:51;8.10;;;3.97;;
13753;SDS011;6948;51.216;6.778;2023-04-12T06:00:18;7.10;;;4.23;;
13753;SDS011;6948;51.216;6.778;2023-04-12T06:02:45;5.83;;;3.83;;
13753;SDS011;6948;51.216;6.778;2023-04-12T06:05:12;7.50;;;4.00;;
13753;SDS011;6948;51.216;6.778;2023-04-12T06:07:39;5.80;;;3.80;;
13753;SDS011;6948;51.216;6.778;2023-04-12T06:10:08;5.27;;;4.40;;
13753;SDS011;6948;51.216;6.778;2023-04-12T06:12:34;4.50;;;3.90;;
13753;SDS011;6948;51.216;6.778;2023-04-12T06:15:00;9.03;;;4.37;;
13753;SDS011;6948;51.216;6.778;2023-04-12T06:17:26;8.20;;;4.63;;
13753;SDS011;6948;51.216;6.778;2023-04-12T06:19:51;5.23;;;3.60;;
13753;SDS011;6948;51.216;6.778;2023-04-12T06:22:17;5.80;;;3.67;;
13753;SDS011;6948;51.216;6.778;2023-04-12T06:24:43;5.63;;;3.70;;
13753;SDS011;6948;51.216;6.778;2023-04-12T06:27:08;4.70;;;3.60;;
13753;SDS011;6948;51.216;6.778;2023-04-12T06:29:34;6.13;;;3.60;;
13753;SDS011;6948;51.216;6.778;2023-04-12T06:32:00;5.67;;;3.67;;
13753;SDS011;6948;51.216;6.778;2023-04-12T06:34:25;7.53;;;3.70;;
13753;SDS011;6948;51.216;6.778;2023-04-12T06:36:51;4.97;;;3.60;;
13753;SDS011;6948;51.216;6.778;2023-04-12T06:39:16;5.77;;;3.40;;
13753;SDS011;6948;51.216;6.778;2023-04-12T06:41:42;7.57;;;3.53;;
13753;SDS011;6948;51.216;6.778;2023-04-12T06:44:08;7.13;;;3.60;;
13753;SDS011;6948;51.216;6.778;2023-04-12T06:46:34;5.90;;;3.20;;
13753;SDS011;6948;51.216;6.778;2023-04-12T06:48:59;5.80;;;3.50;;
13753;SDS011;6948;51.216;6.778;2023-04-12T06:51:25;3.80;;;3.10;;
13753;SDS011;6948;51.216;6.778;2023-04-12T06:53:52;5.50;;;3.20;;
13753;SDS011;6948;51.216;6.778;2023-04-12T06:56:18;6.77;;;3.80;;
13753;SDS011;6948;51.216;6.778;2023-04-12T06:58:43;7.20;;;3.60;;
13753;SDS011;6948;51.216;6.778;2023-04-12T07:01:09;5.80;;;3.27;;
13753;SDS011;6948;51.216;6.778;2023-04-12T07:03:37;6.23;;;2.93;;
13753;SDS011;6948;51.216;6.778;2023-04-12T07:06:03;6.13;;;3.10;;
13753;SDS011;6948;51.216;6.778;2023-04-12T07:08:29;5.70;;;3.10;;
13753;SDS011;6948;51.216;6.778;2023-04-12T07:10:59;4.73;;;2.70;;
13753;SDS011;6948;51.216;6.778;2023-04-12T07:13:25;4.03;;;2.87;;
13753;SDS011;6948;51.216;6.778;2023-04-12T07:15:51;4.97;;;3.00;;
13753;SDS011;6948;51.216;6.778;2023-04-12T07:18:18;4.10;;;2.97;;
13753;SDS011;6948;51.216;6.778;2023-04-12T07:20:45;5.40;;;2.97;;
13753;SDS011;6948;51.216;6.778;2023-04-12T07:23:12;7.00;;;3.17;;
13753;SDS011;6948;51.216;6.778;2023-04-12T07:25:39;3.23;;;2.33;;
13753;SDS011;6948;51.216;6.778;2023-04-12T07:28:05;6.03;;;3.50;;
13753;SDS011;6948;51.216;6.778;2023-04-12T07:30:30;4.33;;;3.00;;
13753;SDS011;6948;51.216;6.778;2023-04-12T07:32:56;4.47;;;2.77;;
13753;SDS011;6948;51.216;6.778;2023-04-12T07:35:24;3.53;;;2.60;;
13753;SDS011;6948;51.216;6.778;2023-04-12T07:37:51;3.87;;;2.60;;
13753;SDS011;6948;51.216;6.778;2023-04-12T07:40:17;4.47;;;2.50;;
13753;SDS011;6948;51.216;6.778;2023-04-12T07:42:43;3.70;;;2.50;;
13753;SDS011;6948;51.216;6.778;2023-04-12T07:45:09;2.90;;;2.50;;
13753;SDS011;6948;51.216;6.778;2023-04-12T07:47:35;3.10;;;2.20;;
13753;SDS011;6948;51.216;6.778;2023-04-12T07:50:00;4.37;;;2.40;;
13753;SDS011;6948;51.216;6.778;2023-04-12T07:52:28;5.77;;;3.53;;
13753;SDS011;6948;51.216;6.778;2023-04-12T07:54:53;4.03;;;2.70;;
13753;SDS011;6948;51.216;6.778;2023-04-12T07:57:19;5.53;;;2.67;;
13753;SDS011;6948;51.216;6.778;2023-04-12T07:59:45;4.63;;;2.80;;
13753;SDS011;6948;51.216;6.778;2023-04-12T08:02:11;3.73;;;2.50;;
13753;SDS011;6948;51.216;6.778;2023-04-12T08:04:37;3.60;;;2.37;;
13753;SDS011;6948;51.216;6.778;2023-04-12T08:07:02;5.90;;;2.73;;
13753;SDS011;6948;51.216;6.778;2023-04-12T08:09:28;3.80;;;2.43;;
13753;SDS011;6948;51.216;6.778;2023-04-12T08:12:03;2.83;;;2.27;;
13753;SDS011;6948;51.216;6.778;2023-04-12T08:14:29;3.33;;;2.33;;
13753;SDS011;6948;51.216;6.778;2023-04-12T08:16:55;4.97;;;2.40;;
13753;SDS011;6948;51.216;6.778;2023-04-12T08:19:20;3.97;;;2.57;;
13753;SDS011;6948;51.216;6.778;2023-04-12T08:21:46;4.33;;;2.67;;
13753;SDS011;6948;51.216;6.778;2023-04-12T08:24:12;4.67;;;2.53;;
13753;SDS011;6948;51.216;6.778;2023-04-12T08:26:37;2.90;;;2.60;;
13753;SDS011;6948;51.216;6.778;2023-04-12T08:29:03;4.90;;;2.30;;
13753;SDS011;6948;51.216;6.778;2023-04-12T08:31:29;3.73;;;2.40;;
13753;SDS011;6948;51.216;6.778;2023-04-12T08:33:54;5.50;;;2.60;;
13753;SDS011;6948;51.216;6.778;2023-04-12T08:36:20;3.50;;;2.40;;
13753;SDS011;6948;51.216;6.778;2023-04-12T08:38:46;4.70;;;3.00;;
13753;SDS011;6948;51.216;6.778;2023-04-12T08:41:16;4.80;;;2.60;;
13753;SDS011;6948;51.216;6.778;2023-04-12T08:43:43;3.73;;;2.30;;
13753;SDS011;6948;51.216;6.778;2023-04-12T08:46:10;2.93;;;2.30;;
13753;SDS011;6948;51.216;6.778;2023-04-12T08:48:39;3.07;;;2.60;;
13753;SDS011;6948;51.216;6.778;2023-04-12T08:51:07;3.40;;;2.20;;
13753;SDS011;6948;51.216;6.778;2023-04-12T08:53:37;7.13;;;2.40;;
13753;SDS011;6948;51.216;6.778;2023-04-12T08:56:03;2.80;;;2.27;;
13753;SDS011;6948;51.216;6.778;2023-04-12T08:58:33;2.90;;;2.30;;
13753;SDS011;6948;51.216;6.778;2023-04-12T09:01:00;6.77;;;3.80;;
13753;SDS011;6948;51.216;6.778;2023-04-12T09:03:26;4.33;;;2.90;;
13753;SDS011;6948;51.216;6.778;2023-04-12T09:05:53;4.87;;;2.73;;
13753;SDS011;6948;51.216;6.778;2023-04-12T09:08:19;3.23;;;2.50;;
13753;SDS011;6948;51.216;6.778;2023-04-12T09:10:45;4.57;;;2.80;;
13753;SDS011;6948;51.216;6.778;2023-04-12T09:13:10;2.73;;;2.50;;
13753;SDS011;6948;51.216;6.778;2023-04-12T09:15:46;4.00;;;2.70;;
13753;SDS011;6948;51.216;6.778;2023-04-12T09:18:13;3.70;;;2.90;;
13753;SDS011;6948;51.216;6.778;2023-04-12T09:20:38;3.70;;;2.90;;
13753;SDS011;6948;51.216;6.778;2023-04-12T09:23:15;4.47;;;2.87;;
13753;SDS011;6948;51.216;6.778;2023-04-12T09:25:42;3.53;;;3.07;;
13753;SDS011;6948;51.216;6.778;2023-04-12T09:28:17;4.27;;;3.20;;
13753;SDS011;6948;51.216;6.778;2023-04-12T09:30:46;4.97;;;3.40;;
13753;SDS011;6948;51.216;6.778;2023-04-12T09:33:20;4.87;;;3.20;;
13753;SDS011;6948;51.216;6.778;2023-04-12T09:35:47;4.37;;;3.10;;
13753;SDS011;6948;51.216;6.778;2023-04-12T09:38:13;3.97;;;3.27;;
13753;SDS011;6948;51.216;6.778;2023-04-12T09:40:39;3.50;;;3.00;;
13753;SDS011;6948;51.216;6.778;2023-04-12T09:43:06;3.60;;;3.30;;
13753;SDS011;6948;51.216;6.778;2023-04-12T09:45:34;5.30;;;3.93;;
13753;SDS011;6948;51.216;6.778;2023-04-12T09:48:02;5.50;;;3.50;;
13753;SDS011;6948;51.216;6.778;2023-04-12T09:50:30;5.07;;;3.43;;
13753;SDS011;6948;51.216;6.778;2023-04-12T09:52:57;4.00;;;3.53;;
13753;SDS011;6948;51.216;6.778;2023-04-12T09:55:25;3.73;;;3.10;;
13753;SDS011;6948;51.216;6.778;2023-04-12T09:57:54;4.73;;;3.43;;
13753;SDS011;6948;51.216;6.778;2023-04-12T10:00:21;4.23;;;3.43;;
13753;SDS011;6948;51.216;6.778;2023-04-12T10:02:50;5.10;;;3.60;;
13753;SDS011;6948;51.216;6.778;2023-04-12T10:05:18;5.20;;;3.80;;
13753;SDS011;6948;51.216;6.778;2023-04-12T10:07:46;5.37;;;3.73;;
13753;SDS011;6948;51.216;6.778;2023-04-12T10:10:13;4.53;;;3.40;;
13753;SDS011;6948;51.216;6.778;2023-04-12T10:12:50;4.37;;;3.30;;
13753;SDS011;6948;51.216;6.778;2023-04-12T10:15:17;4.73;;;3.00;;
13753;SDS011;6948;51.216;6.778;2023-04-12T10:17:46;3.77;;;2.60;;
13753;SDS011;6948;51.216;6.778;2023-04-12T10:20:14;5.50;;;3.83;;
13753;SDS011;6948;51.216;6.778;2023-04-12T10:22:43;4.17;;;3.47;;
13753;SDS011;6948;51.216;6.778;2023-04-12T10:25:15;4.10;;;2.60;;
13753;SDS011;6948;51.216;6.778;2023-04-12T10:27:46;2.60;;;2.40;;
13753;SDS011;6948;51.216;6.778;2023-04-12T10:30:28;3.83;;;2.37;;
13753;SDS011;6948;51.216;6.778;2023-04-12T10:38:23;1.83;;;1.70;;
13753;SDS011;6948;51.216;6.778;2023-04-12T10:43:48;2.27;;;1.50;;
13753;SDS011;6948;51.216;6.778;2023-04-12T10:49:13;2.73;;;1.60;;
13753;SDS011;6948;51.216;6.778;2023-04-12T10:51:39;2.10;;;1.80;;
13753;SDS011;6948;51.216;6.778;2023-04-12T10:54:35;3.83;;;2.30;;
13753;SDS011;6948;51.216;6.778;2023-04-12T10:57:02;4.13;;;2.67;;
13753;SDS011;6948;51.216;6.778;2023-04-12T11:02:25;4.07;;;2.70;;
13753;SDS011;6948;51.216;6.778;2023-04-12T11:05:07;5.63;;;2.80;;
13753;SDS011;6948;51.216;6.778;2023-04-12T11:07:37;5.60;;;2.80;;
13753;SDS011;6948;51.216;6.778;2023-04-12T11:10:10;5.63;;;3.20;;
13753;SDS011;6948;51.216;6.778;2023-04-12T11:12:38;4.97;;;2.53;;
13753;SDS011;6948;51.216;6.778;2023-04-12T11:15:05;3.07;;;2.10;;
13753;SDS011;6948;51.216;6.778;2023-04-12T11:17:31;5.80;;;2.60;;
13753;SDS011;6948;51.216;6.778;2023-04-12T11:19:58;4.87;;;2.20;;
13753;SDS011;6948;51.216;6.778;2023-04-12T11:22:26;5.00;;;2.20;;
13753;SDS011;6948;51.216;6.778;2023-04-12T11:24:55;4.67;;;2.30;;
13753;SDS011;6948;51.216;6.778;2023-04-12T11:27:23;4.50;;;2.10;;
13753;SDS011;6948;51.216;6.778;2023-04-12T11:29:51;6.13;;;2.10;;
13753;SDS011;6948;51.216;6.778;2023-04-12T11:32:20;4.63;;;2.37;;
13753;SDS011;6948;51.216;6.778;2023-04-12T11:34:48;3.93;;;1.90;;
13753;SDS011;6948;51.216;6.778;2023-04-12T11:37:14;4.13;;;2.00;;
13753;SDS011;6948;51.216;6.778;2023-04-12T11:39:43;3.83;;;2.10;;
13753;SDS011;6948;51.216;6.778;2023-04-12T11:42:12;5.13;;;2.40;;
13753;SDS011;6948;51.216;6.778;2023-04-12T11:44:40;5.23;;;2.33;;
13753;SDS011;6948;51.216;6.778;2023-04-12T11:47:11;5.83;;;2.50;;
13753;SDS011;6948;51.216;6.778;2023-04-12T11:49:42;4.87;;;2.50;;
13753;SDS011;6948;51.216;6.778;2023-04-12T11:52:08;5.33;;;2.83;;
13753;SDS011;6948;51.216;6.778;2023-04-12T11:54:34;5.77;;;2.60;;
13753;SDS011;6948;51.216;6.778;2023-04-12T11:56:59;6.53;;;2.90;;
13753;SDS011;6948;51.216;6.778;2023-04-12T11:59:33;5.87;;;2.70;;
13753;SDS011;6948;51.216;6.778;2023-04-12T12:02:02;4.87;;;2.63;;
13753;SDS011;6948;51.216;6.778;2023-04-12T12:04:29;3.43;;;2.70;;
13753;SDS011;6948;51.216;6.778;2023-04-12T12:06:56;4.70;;;2.70;;
13753;SDS011;6948;51.216;6.778;2023-04-12T12:09:23;4.70;;;2.33;;
13753;SDS011;6948;51.216;6.778;2023-04-12T12:11:50;4.17;;;2.40;;
13753;SDS011;6948;51.216;6.778;2023-04-12T12:14:17;4.70;;;2.20;;
13753;SDS011;6948;51.216;6.778;2023-04-12T12:16:50;5.63;;;2.63;;
13753;SDS011;6948;51.216;6.778;2023-04-12T12:22:06;5.00;;;2.30;;
13753;SDS011;6948;51.216;6.778;2023-04-12T12:24:37;3.57;;;2.50;;
13753;SDS011;6948;51.216;6.778;2023-04-12T12:27:03;9.13;;;3.17;;
13753;SDS011;6948;51.216;6.778;2023-04-12T12:29:33;8.53;;;3.13;;
13753;SDS011;6948;51.216;6.778;2023-04-12T12:32:01;5.53;;;2.43;;
13753;SDS011;6948;51.216;6.778;2023-04-12T12:34:32;7.10;;;2.23;;
13753;SDS011;6948;51.216;6.778;2023-04-12T12:36:58;7.97;;;2.70;;
13753;SDS011;6948;51.216;6.778;2023-04-12T12:39:24;6.70;;;2.70;;
13753;SDS011;6948;51.216;6.778;2023-04-12T12:41:52;7.47;;;2.57;;
13753;SDS011;6948;51.216;6.778;2023-04-12T12:44:20;5.13;;;2.63;;
13753;SDS011;6948;51.216;6.778;2023-04-12T12:46:47;9.37;;;2.93;;
13753;SDS011;6948;51.216;6.778;2023-04-12T12:49:12;6.97;;;2.60;;
13753;SDS011;6948;51.216;6.778;2023-04-12T12:51:38;6.70;;;3.00;;
13753;SDS011;6948;51.216;6.778;2023-04-12T12:54:03;9.67;;;3.10;;
13753;SDS011;6948;51.216;6.778;2023-04-12T12:56:29;5.40;;;3.00;;
13753;SDS011;6948;51.216;6.778;2023-04-12T12:58:55;11.23;;;3.53;;
13753;SDS011;6948;51.216;6.778;2023-04-12T13:01:21;8.57;;;3.00;;
13753;SDS011;6948;51.216;6.778;2023-04-12T13:03:46;8.13;;;2.80;;
13753;SDS011;6948;51.216;6.778;2023-04-12T13:06:12;8.97;;;2.83;;
13753;SDS011;6948;51.216;6.778;2023-04-12T13:08:38;10.30;;;2.70;;
13753;SDS011;6948;51.216;6.778;2023-04-12T13:11:05;8.27;;;3.20;;
13753;SDS011;6948;51.216;6.778;2023-04-12T13:13:30;8.60;;;3.00;;
13753;SDS011;6948;51.216;6.778;2023-04-12T13:15:56;11.37;;;3.10;;
13753;SDS011;6948;51.216;6.778;2023-04-12T13:18:22;12.20;;;3.67;;
13753;SDS011;6948;51.216;6.778;2023-04-12T13:20:48;8.97;;;2.73;;
13753;SDS011;6948;51.216;6.778;2023-04-12T13:23:13;13.20;;;3.40;;
13753;SDS011;6948;51.216;6.778;2023-04-12T13:25:40;10.13;;;3.33;;
13753;SDS011;6948;51.216;6.778;2023-04-12T13:28:05;13.37;;;3.27;;
13753;SDS011;6948;51.216;6.778;2023-04-12T13:30:31;12.23;;;3.23;;
13753;SDS011;6948;51.216;6.778;2023-04-12T13:32:57;11.03;;;3.30;;
13753;SDS011;6948;51.216;6.778;2023-04-12T13:35:22;12.23;;;3.10;;
13753;SDS011;6948;51.216;6.778;2023-04-12T13:37:48;11.90;;;3.20;;
13753;SDS011;6948;51.216;6.778;2023-04-12T13:40:13;14.03;;;3.20;;
13753;SDS011;6948;51.216;6.778;2023-04-12T13:42:39;11.93;;;3.20;;
13753;SDS011;6948;51.216;6.778;2023-04-12T13:45:05;13.07;;;3.30;;
13753;SDS011;6948;51.216;6.778;2023-04-12T13:47:32;10.97;;;3.20;;
13753;SDS011;6948;51.216;6.778;2023-04-12T13:49:59;8.97;;;2.50;;
13753;SDS011;6948;51.216;6.778;2023-04-12T13:52:25;7.97;;;2.30;;
13753;SDS011;6948;51.216;6.778;2023-04-12T13:54:51;7.07;;;2.30;;
13753;SDS011;6948;51.216;6.778;2023-04-12T13:57:16;5.43;;;2.00;;
13753;SDS011;6948;51.216;6.778;2023-04-12T13:59:42;6.03;;;2.10;;
13753;SDS011;6948;51.216;6.778;2023-04-12T14:02:08;6.63;;;2.03;;
13753;SDS011;6948;51.216;6.778;2023-04-12T14:04:34;6.07;;;2.27;;
13753;SDS011;6948;51.216;6.778;2023-04-12T14:07:00;8.60;;;2.33;;
13753;SDS011;6948;51.216;6.778;2023-04-12T14:09:27;6.67;;;2.10;;
13753;SDS011;6948;51.216;6.778;2023-04-12T14:11:54;3.47;;;1.53;;
13753;SDS011;6948;51.216;6.778;2023-04-12T14:14:21;4.30;;;1.80;;
13753;SDS011;6948;51.216;6.778;2023-04-12T14:16:49;5.97;;;1.80;;
13753;SDS011;6948;51.216;6.778;2023-04-12T14:19:17;5.10;;;1.70;;
13753;SDS011;6948;51.216;6.778;2023-04-12T14:21:43;4.53;;;2.03;;
13753;SDS011;6948;51.216;6.778;2023-04-12T14:24:09;3.33;;;1.70;;
13753;SDS011;6948;51.216;6.778;2023-04-12T14:26:35;4.00;;;1.67;;
13753;SDS011;6948;51.216;6.778;2023-04-12T14:29:03;3.50;;;1.60;;
13753;SDS011;6948;51.216;6.778;2023-04-12T14:31:30;3.73;;;1.60;;
13753;SDS011;6948;51.216;6.778;2023-04-12T14:33:56;5.03;;;1.83;;
13753;SDS011;6948;51.216;6.778;2023-04-12T14:36:21;5.60;;;1.90;;
13753;SDS011;6948;51.216;6.778;2023-04-12T14:38:47;6.77;;;2.10;;
13753;SDS011;6948;51.216;6.778;2023-04-12T14:41:14;3.47;;;1.67;;
13753;SDS011;6948;51.216;6.778;2023-04-12T14:43:41;4.83;;;1.80;;
13753;SDS011;6948;51.216;6.778;2023-04-12T14:46:06;5.77;;;2.10;;
13753;SDS011;6948;51.216;6.778;2023-04-12T14:48:32;5.67;;;2.20;;
13753;SDS011;6948;51.216;6.778;2023-04-12T14:50:57;5.53;;;1.87;;
13753;SDS011;6948;51.216;6.778;2023-04-12T14:53:23;7.17;;;1.97;;
13753;SDS011;6948;51.216;6.778;2023-04-12T14:55:49;5.17;;;2.27;;
13753;SDS011;6948;51.216;6.778;2023-04-12T14:58:15;5.30;;;1.90;;
13753;SDS011;6948;51.216;6.778;2023-04-12T15:00:41;4.20;;;1.90;;
13753;SDS011;6948;51.216;6.778;2023-04-12T15:03:06;5.17;;;1.93;;
13753;SDS011;6948;51.216;6.778;2023-04-12T15:05:32;4.30;;;2.20;;
13753;SDS011;6948;51.216;6.778;2023-04-12T15:07:59;5.67;;;2.20;;
13753;SDS011;6948;51.216;6.778;2023-04-12T15:10:25;5.03;;;2.20;;
13753;SDS011;6948;51.216;6.778;2023-04-12T15:12:52;6.60;;;1.90;;
13753;SDS011;6948;51.216;6.778;2023-04-12T15:15:18;5.67;;;1.77;;
13753;SDS011;6948;51.216;6.778;2023-04-12T15:17:44;3.90;;;1.40;;
13753;SDS011;6948;51.216;6.778;2023-04-12T15:20:09;5.77;;;1.70;;
13753;SDS011;6948;51.216;6.778;2023-04-12T15:22:37;2.90;;;1.20;;
13753;SDS011;6948;51.216;6.778;2023-04-12T15:25:03;1.97;;;1.20;;